Aviation Digital Data Service (ADDS)

Output produced by METARs form (1221 UTC 23 March 2017)
found at http://aviationweather.gov/adds/metars/
 
METAR text: KCVC 231215Z AUTO 07009KT 10SM OVC050 10/01 A3040 RMK AO2
Conditions at: KCVC (COVINGTON MUNI , GA, US) observed 1215 UTC 23 March 2017
Temperature: 10.0°C (50°F)
Dewpoint: 1.0°C (34°F) [RH = 53%]
Pressure (altimeter): 30.40 inches Hg (1029.5 mb)
Winds: from the ENE (70 degrees) at 10 MPH (9 knots; 4.7 m/s)
Visibility: 10 or more miles (16+ km)
Ceiling: 5000 feet AGL
Clouds: overcast cloud deck at 5000 feet AGL
Weather: automated observation with no human augmentation;
there may or may not be significant weather present at this time